Time;durP1;ratioP1;P1;durP2;ratioP2;P2;SDS_P1;SDS_P2;PMS_P1;PMS_P2;Temp;Humidity;BMP_temperature;BMP_pressure;BME280_temperature;BME280_humidity;BME280_pressure;Samples;Min_cycle;Max_cycle;Signal;HPM_P1;HPM_P2
2024/03/04 00:00:43;;;;;;;0.10;0.10;;;;;;;6.39;66.87;99915.25;7359079;19;20613;-63
2024/03/04 00:03:08;;;;;;;0.10;0.10;;;;;;;6.36;66.67;99907.50;7362706;19;20540;-63
2024/03/04 00:05:35;;;;;;;0.00;0.00;;;;;;;6.34;66.71;99916.22;7356057;19;20006;-62
2024/03/04 00:08:02;;;;;;;0.00;0.00;;;;;;;6.28;66.82;99906.78;7358080;19;20017;-61
2024/03/04 00:10:27;;;;;;;0.00;0.00;;;;;;;6.26;66.56;99921.50;7364922;19;20007;-62
2024/03/04 00:12:55;;;;;;;0.00;0.00;;;;;;;6.25;66.85;99914.63;7364734;19;20014;-62
2024/03/04 00:15:20;;;;;;;;;;;;;;;6.22;65.63;99917.25;7364196;19;20105;-61
2024/03/04 00:17:46;;;;;;;0.00;0.00;;;;;;;6.18;66.82;99915.59;7359881;19;20455;-61
2024/03/04 00:20:11;;;;;;;0.10;0.10;;;;;;;6.14;66.57;99919.16;7367124;19;20399;-62
2024/03/04 00:22:37;;;;;;;0.10;0.10;;;;;;;6.10;66.51;99920.06;7357921;19;20011;-62
2024/03/04 00:25:05;;;;;;;0.03;0.03;;;;;;;6.05;66.90;99924.47;7358881;19;20052;-61
2024/03/04 00:27:32;;;;;;;0.10;0.10;;;;;;;6.02;67.43;99921.94;7356425;19;20011;-61
2024/03/04 00:29:58;;;;;;;0.10;0.10;;;;;;;5.98;67.54;99921.13;7361430;19;20016;-62
2024/03/04 00:32:23;;;;;;;0.00;0.00;;;;;;;5.95;67.64;99927.22;7365309;19;20019;-61
2024/03/04 00:34:48;;;;;;;0.00;0.00;;;;;;;5.89;67.61;99916.06;7362740;19;20022;-62
2024/03/04 00:37:14;;;;;;;0.10;0.10;;;;;;;5.90;67.45;99923.81;7353138;19;20011;-61
2024/03/04 00:39:41;;;;;;;0.03;0.03;;;;;;;5.89;67.52;99923.84;7329752;19;20049;-61
2024/03/04 00:42:07;;;;;;;0.00;0.00;;;;;;;5.87;67.57;99912.63;7357451;19;20104;-64
2024/03/04 00:44:34;;;;;;;0.10;0.10;;;;;;;5.86;67.61;99919.56;7358380;19;20086;-61
2024/03/04 00:46:59;;;;;;;0.00;0.00;;;;;;;5.86;67.78;99922.16;7355246;19;20014;-62
2024/03/04 00:49:26;;;;;;;0.00;0.00;;;;;;;5.87;68.39;99918.66;7357525;19;20045;-62
2024/03/04 00:51:51;;;;;;;0.00;0.00;;;;;;;5.88;67.94;99915.22;7356798;19;20006;-61
2024/03/04 00:54:18;;;;;;;0.10;0.10;;;;;;;5.90;68.33;99921.22;7366353;19;20014;-61
2024/03/04 00:56:43;;;;;;;0.00;0.00;;;;;;;5.91;67.92;99915.19;7363671;19;20249;-61
2024/03/04 00:59:09;;;;;;;0.00;0.00;;;;;;;5.84;67.92;99898.00;7361985;19;20003;-62
2024/03/04 01:01:34;;;;;;;0.10;0.10;;;;;;;5.92;68.16;99910.84;7365256;19;20011;-61
2024/03/04 01:04:00;;;;;;;0.00;0.00;;;;;;;5.92;68.26;99901.34;7364963;19;20014;-62
2024/03/04 01:06:27;;;;;;;0.10;0.10;;;;;;;5.91;68.07;99899.63;7361499;19;20020;-62
2024/03/04 01:08:53;;;;;;;0.10;0.10;;;;;;;5.91;68.46;99893.56;7366827;19;20014;-61
2024/03/04 01:11:19;;;;;;;0.00;0.00;;;;;;;5.91;68.23;99896.16;7361134;19;20006;-61
2024/03/04 01:13:44;;;;;;;0.10;0.10;;;;;;;5.90;68.29;99897.91;7362796;19;20024;-62
2024/03/04 01:16:09;;;;;;;0.10;0.10;;;;;;;5.75;68.23;99876.56;7363806;19;20350;-61
2024/03/04 01:18:36;;;;;;;0.10;0.10;;;;;;;5.91;68.69;99893.56;7361757;19;20014;-61
2024/03/04 01:21:03;;;;;;;0.10;0.10;;;;;;;5.80;68.63;99875.63;7361515;19;20508;-61
2024/03/04 01:23:28;;;;;;;0.10;0.10;;;;;;;5.90;68.60;99889.28;7362501;19;20015;-61
2024/03/04 01:25:54;;;;;;;0.10;0.10;;;;;;;5.90;68.61;99897.91;7360314;19;20028;-61
2024/03/04 01:28:22;;;;;;;0.10;0.10;;;;;;;5.89;68.49;99900.53;7357954;19;20573;-62
2024/03/04 01:30:49;;;;;;;0.10;0.10;;;;;;;5.90;68.34;99900.50;7334675;19;20435;-61
2024/03/04 01:33:15;;;;;;;0.00;0.00;;;;;;;5.87;68.60;99903.13;7358930;19;20014;-61
2024/03/04 01:35:40;;;;;;;0.10;0.10;;;;;;;5.84;68.60;99895.41;7359988;19;20017;-62
2024/03/04 01:38:06;;;;;;;0.00;0.00;;;;;;;5.86;68.67;99896.25;7355779;19;20006;-62
2024/03/04 01:40:31;;;;;;;0.03;0.03;;;;;;;5.85;68.60;99894.53;7362275;19;20013;-61
2024/03/04 01:42:57;;;;;;;0.05;0.05;;;;;;;5.82;68.17;99889.38;7358368;19;20593;-62
2024/03/04 01:45:26;;;;;;;0.05;0.05;;;;;;;5.84;68.22;99887.66;7356079;19;20015;-61
2024/03/04 01:47:57;;;;;;;0.10;0.10;;;;;;;5.84;68.71;99897.16;7337219;19;20041;-61
2024/03/04 01:50:31;;;;;;;0.10;0.10;;;;;;;5.85;68.45;99891.94;7358827;19;19998;-63
2024/03/04 01:52:58;;;;;;;0.10;0.10;;;;;;;5.84;68.91;99886.78;7361990;19;20089;-61
2024/03/04 01:55:28;;;;;;;0.00;0.00;;;;;;;5.83;68.34;99885.94;7365496;19;20002;-61
2024/03/04 01:57:55;;;;;;;0.10;0.10;;;;;;;5.82;68.64;99875.59;7363534;19;20011;-61
2024/03/04 02:00:23;;;;;;;0.10;0.10;;;;;;;5.78;68.51;99877.38;7361692;19;20003;-61
2024/03/04 02:02:49;;;;;;;0.10;0.10;;;;;;;5.82;68.69;99875.59;7361498;19;20487;-61
2024/03/04 02:05:15;;;;;;;0.10;0.10;;;;;;;5.80;68.85;99875.63;7364646;19;20377;-61
2024/03/04 02:07:42;;;;;;;0.10;0.10;;;;;;;5.80;69.00;99885.13;7360020;19;20003;-62
2024/03/04 02:10:09;;;;;;;0.10;0.10;;;;;;;5.77;68.67;99891.19;7357146;19;20534;-62
2024/03/04 02:12:36;;;;;;;;;;;;;;;5.79;67.51;99886.88;7364052;19;20566;-61
2024/03/04 02:15:03;;;;;;;0.00;0.00;;;;;;;5.76;68.55;99889.50;7358404;19;20310;-61
2024/03/04 02:17:29;;;;;;;;;;;;;;;5.77;67.61;99886.03;7364982;19;20009;-62
2024/03/04 02:20:03;;;;;;;0.10;0.10;;;;;;;5.71;68.44;99888.72;7361103;19;19918;-61
2024/03/04 02:22:29;;;;;;;0.10;0.10;;;;;;;5.69;68.86;99880.97;7359540;19;20106;-61
2024/03/04 02:24:54;;;;;;;0.00;0.00;;;;;;;5.52;68.55;99861.38;7365413;19;20093;-61
2024/03/04 02:27:21;;;;;;;0.10;0.10;;;;;;;5.63;68.35;99880.22;7360154;19;20006;-60
2024/03/04 02:29:48;;;;;;;0.10;0.10;;;;;;;5.62;68.51;99881.09;7366126;19;20542;-60
2024/03/04 02:32:16;;;;;;;0.10;0.10;;;;;;;5.58;68.76;99884.63;7362871;19;20006;-60
2024/03/04 02:34:44;;;;;;;0.00;0.00;;;;;;;5.45;69.13;99864.06;7366221;19;20017;-64
2024/03/04 02:37:09;;;;;;;0.00;0.00;;;;;;;5.34;68.89;99852.19;7360572;19;19998;-61
2024/03/04 02:39:37;;;;;;;0.10;0.10;;;;;;;5.51;68.93;99883.00;7365240;19;20037;-61
2024/03/04 02:42:03;;;;;;;0.10;0.10;;;;;;;5.47;68.94;99885.66;7365497;19;20022;-61
2024/03/04 02:44:30;;;;;;;0.10;0.10;;;;;;;5.46;68.94;99896.84;7363675;19;20006;-61
2024/03/04 02:46:55;;;;;;;0.10;0.10;;;;;;;5.42;68.87;99889.16;7364091;19;20459;-60
2024/03/04 02:49:21;;;;;;;0.10;0.10;;;;;;;5.33;69.02;99879.81;7359105;19;20002;-61
2024/03/04 02:51:46;;;;;;;0.10;0.10;;;;;;;5.29;68.92;99880.72;7368730;19;20085;-61
2024/03/04 02:54:12;;;;;;;0.00;0.00;;;;;;;5.34;68.93;99886.69;7370694;19;20013;-62
2024/03/04 02:56:38;;;;;;;0.10;0.10;;;;;;;5.30;68.93;99887.59;7370001;19;20018;-61
2024/03/04 02:59:03;;;;;;;0.10;0.10;;;;;;;5.30;69.24;99889.34;7368349;19;20007;-61
2024/03/04 03:01:29;;;;;;;0.05;0.05;;;;;;;5.27;68.94;99889.38;7372286;19;20006;-61
2024/03/04 03:03:54;;;;;;;0.10;0.10;;;;;;;5.24;69.12;99884.25;7373283;19;20541;-61
2024/03/04 03:06:20;;;;;;;0.10;0.10;;;;;;;5.18;69.04;99877.44;7364490;19;20029;-61
2024/03/04 03:08:46;;;;;;;0.10;0.10;;;;;;;5.19;69.04;99877.41;7368585;19;20015;-62
2024/03/04 03:11:12;;;;;;;0.10;0.10;;;;;;;5.17;68.85;99883.47;7372109;19;20010;-61
2024/03/04 03:13:37;;;;;;;0.00;0.00;;;;;;;5.14;69.08;99884.38;7366802;19;20015;-61
2024/03/04 03:16:04;;;;;;;0.10;0.10;;;;;;;5.13;69.15;99881.81;7369300;19;20021;-61
2024/03/04 03:18:31;;;;;;;0.10;0.10;;;;;;;5.12;69.38;99895.63;7368682;19;20007;-61
2024/03/04 03:20:56;;;;;;;0.10;0.10;;;;;;;5.09;69.25;99885.31;7368427;19;20936;-61
2024/03/04 03:23:22;;;;;;;0.10;0.10;;;;;;;5.06;69.25;99878.44;7369205;19;20010;-62
2024/03/04 03:25:47;;;;;;;0.00;0.00;;;;;;;5.05;69.82;99881.06;7368537;19;20721;-62
2024/03/04 03:28:13;;;;;;;0.10;0.10;;;;;;;5.05;70.05;99863.78;7371317;19;19995;-61
2024/03/04 03:30:40;;;;;;;0.00;0.00;;;;;;;5.02;69.97;99858.69;7366522;19;20034;-61
2024/03/04 03:33:06;;;;;;;0.00;0.00;;;;;;;5.05;70.32;99860.34;7369414;19;20451;-62
2024/03/04 03:35:31;;;;;;;0.10;0.10;;;;;;;5.09;70.25;99864.63;7369772;19;20042;-61
2024/03/04 03:37:56;;;;;;;0.10;0.10;;;;;;;5.09;70.21;99852.53;7369833;19;20458;-61
2024/03/04 03:40:22;;;;;;;0.10;0.10;;;;;;;5.11;69.97;99853.34;7369137;19;20003;-63
2024/03/04 03:42:47;;;;;;;0.10;0.10;;;;;;;5.11;69.68;99845.59;7365046;19;20625;-61
2024/03/04 03:45:13;;;;;;;0.10;0.10;;;;;;;5.00;70.06;99829.38;7368213;19;20006;-61
2024/03/04 03:47:38;;;;;;;0.10;0.10;;;;;;;5.14;69.95;99852.47;7365493;19;20015;-61
2024/03/04 03:50:05;;;;;;;0.00;0.00;;;;;;;5.11;70.06;99843.00;7366730;19;20825;-61
2024/03/04 03:52:31;;;;;;;0.10;0.10;;;;;;;5.17;70.04;99849.81;7363555;19;20042;-61
2024/03/04 03:54:57;;;;;;;0.00;0.00;;;;;;;5.18;70.17;99848.97;7365970;19;20045;-62
2024/03/04 03:57:23;;;;;;;0.10;0.10;;;;;;;5.20;70.26;99850.63;7368804;19;20470;-61
2024/03/04 03:59:48;;;;;;;0.10;0.10;;;;;;;5.22;70.45;99845.47;7368930;19;20006;-61
2024/03/04 04:02:14;;;;;;;0.10;0.10;;;;;;;5.24;70.51;99843.69;7368292;19;20009;-61
2024/03/04 04:04:39;;;;;;;0.05;0.05;;;;;;;5.26;70.20;99841.06;7369555;19;20011;-61
2024/03/04 04:07:05;;;;;;;0.10;0.10;;;;;;;5.26;70.22;99852.28;7369528;19;19995;-61
2024/03/04 04:09:30;;;;;;;0.00;0.00;;;;;;;5.27;70.14;99848.84;7369179;19;19998;-61
2024/03/04 04:11:55;;;;;;;0.10;0.10;;;;;;;5.28;70.04;99845.38;7366667;19;20422;-61
2024/03/04 04:14:21;;;;;;;0.10;0.10;;;;;;;5.29;69.87;99847.06;7368266;19;20095;-62
2024/03/04 04:16:46;;;;;;;0.10;0.10;;;;;;;5.28;70.32;99845.38;7341073;19;20012;-61
2024/03/04 04:19:12;;;;;;;0.10;0.10;;;;;;;5.30;69.98;99856.53;7368429;19;20010;-62
2024/03/04 04:21:38;;;;;;;0.10;0.10;;;;;;;5.30;69.91;99853.94;7367574;19;19998;-62
2024/03/04 04:24:04;;;;;;;0.10;0.10;;;;;;;5.32;70.05;99852.22;7370443;19;20049;-61
2024/03/04 04:26:29;;;;;;;0.10;0.10;;;;;;;5.35;70.12;99856.47;7367255;19;20068;-62
2024/03/04 04:28:54;;;;;;;0.00;0.00;;;;;;;5.26;70.70;99831.56;7363750;19;20470;-61
2024/03/04 04:31:21;;;;;;;0.10;0.10;;;;;;;5.34;70.19;99829.75;7370237;19;20025;-61
2024/03/04 04:33:47;;;;;;;0.10;0.10;;;;;;;5.38;70.59;99841.75;7368640;19;20041;-62
2024/03/04 04:36:12;;;;;;;0.10;0.10;;;;;;;5.43;70.22;99834.78;7366223;19;20003;-61
2024/03/04 04:38:38;;;;;;;0.10;0.10;;;;;;;5.46;70.53;99818.31;7369060;19;20003;-61
2024/03/04 04:41:04;;;;;;;0.10;0.10;;;;;;;5.51;70.90;99826.03;7364958;19;20018;-61
2024/03/04 04:43:31;;;;;;;0.10;0.10;;;;;;;5.54;70.76;99828.56;7369226;19;20363;-62
2024/03/04 04:45:57;;;;;;;0.10;0.10;;;;;;;5.58;70.60;99832.84;7367543;19;20625;-60
2024/03/04 04:48:22;;;;;;;0.00;0.00;;;;;;;5.63;70.42;99831.03;7368135;19;20002;-61
2024/03/04 04:50:48;;;;;;;0.10;0.10;;;;;;;5.64;70.35;99824.94;7360356;19;20006;-63
2024/03/04 04:53:14;;;;;;;0.00;0.00;;;;;;;5.69;70.69;99825.72;7366995;19;20006;-61
2024/03/04 04:55:39;;;;;;;0.00;0.00;;;;;;;5.72;70.76;99820.47;7352660;19;20036;-62
2024/03/04 04:58:05;;;;;;;0.10;0.10;;;;;;;5.78;70.69;99824.69;7369617;19;20490;-61
2024/03/04 05:00:30;;;;;;;0.10;0.10;;;;;;;5.82;70.45;99829.81;7368282;19;20535;-61
2024/03/04 05:02:56;;;;;;;0.10;0.10;;;;;;;5.84;70.51;99824.63;7368819;19;20091;-61
2024/03/04 05:05:22;;;;;;;0.10;0.10;;;;;;;5.86;70.75;99821.09;7366591;19;20438;-61
2024/03/04 05:07:48;;;;;;;0.10;0.10;;;;;;;5.88;70.72;99821.06;7367929;19;20784;-61
2024/03/04 05:10:14;;;;;;;0.10;0.10;;;;;;;5.91;70.30;99821.91;7365625;19;20010;-61
2024/03/04 05:12:40;;;;;;;0.10;0.10;;;;;;;5.88;70.36;99811.59;7366796;19;20003;-61
2024/03/04 05:15:07;;;;;;;0.00;0.00;;;;;;;5.96;70.47;99824.41;7367542;19;20082;-60
2024/03/04 05:17:33;;;;;;;0.10;0.10;;;;;;;5.96;70.50;99820.09;7368566;19;20007;-62
2024/03/04 05:19:58;;;;;;;0.10;0.10;;;;;;;6.01;70.53;99824.34;7369288;19;20006;-61
2024/03/04 05:22:24;;;;;;;0.10;0.10;;;;;;;6.03;70.87;99819.97;7368555;19;20017;-61
2024/03/04 05:24:50;;;;;;;0.10;0.10;;;;;;;6.06;70.49;99823.38;7368318;19;20717;-61
2024/03/04 05:27:15;;;;;;;0.10;0.10;;;;;;;5.87;70.95;99783.94;7356879;19;19998;-61
2024/03/04 05:29:41;;;;;;;0.00;0.00;;;;;;;6.12;70.71;99820.66;7369888;19;20039;-60
2024/03/04 05:32:06;;;;;;;0.10;0.10;;;;;;;6.16;70.81;99813.69;7363459;19;20018;-62
2024/03/04 05:34:32;;;;;;;0.00;0.00;;;;;;;6.19;70.59;99821.41;7368847;19;20003;-61
2024/03/04 05:36:58;;;;;;;0.10;0.10;;;;;;;6.23;70.53;99815.25;7365146;19;20009;-62
2024/03/04 05:39:23;;;;;;;0.00;0.00;;;;;;;6.24;70.77;99812.66;7362574;19;20003;-61
2024/03/04 05:41:49;;;;;;;0.10;0.10;;;;;;;6.32;70.48;99807.31;7366248;19;20006;-62
2024/03/04 05:44:16;;;;;;;0.10;0.10;;;;;;;6.34;70.54;99800.38;7367223;19;19998;-62
2024/03/04 05:46:44;;;;;;;0.10;0.10;;;;;;;6.37;70.47;99795.13;7351995;19;20006;-61
2024/03/04 05:49:10;;;;;;;;;;;;;;;6.46;69.88;99794.94;7367685;19;20020;-61
2024/03/04 05:51:40;;;;;;;0.00;0.00;;;;;;;6.48;70.30;99798.34;7363535;19;19914;-62
2024/03/04 05:54:05;;;;;;;0.10;0.10;;;;;;;6.49;70.56;99794.88;7366755;19;20007;-62
2024/03/04 05:56:30;;;;;;;0.10;0.10;;;;;;;6.47;70.53;99780.22;7357782;19;20370;-61
2024/03/04 05:58:56;;;;;;;0.10;0.10;;;;;;;6.56;70.38;99794.75;7368437;19;20426;-61
2024/03/04 06:01:22;;;;;;;0.00;0.00;;;;;;;6.58;70.99;99785.19;7364468;19;20007;-61
2024/03/04 06:03:47;;;;;;;0.10;0.10;;;;;;;6.62;70.70;99782.50;7362784;19;20386;-61
2024/03/04 06:06:13;;;;;;;0.10;0.10;;;;;;;6.65;70.88;99779.00;7363573;19;20018;-63
2024/03/04 06:08:39;;;;;;;0.03;0.03;;;;;;;6.68;70.97;99778.91;7362343;19;20010;-62
2024/03/04 06:11:04;;;;;;;0.10;0.10;;;;;;;6.70;70.77;99778.00;7363676;19;20014;-62
2024/03/04 06:13:30;;;;;;;0.00;0.00;;;;;;;6.72;71.07;99775.38;7366330;19;20007;-62
2024/03/04 06:15:55;;;;;;;0.00;0.00;;;;;;;6.68;70.48;99768.53;7355324;19;20007;-61
2024/03/04 06:18:20;;;;;;;0.10;0.10;;;;;;;6.79;70.95;99776.94;7364032;19;20513;-61
2024/03/04 06:20:46;;;;;;;0.05;0.05;;;;;;;6.81;70.79;99780.38;7367481;19;20871;-61
2024/03/04 06:23:11;;;;;;;0.00;0.00;;;;;;;6.83;71.01;99775.13;7366387;19;19998;-62
2024/03/04 06:25:37;;;;;;;0.10;0.10;;;;;;;6.84;70.73;99779.44;7365474;19;20047;-61
2024/03/04 06:28:03;;;;;;;0.10;0.10;;;;;;;6.86;70.74;99773.34;7372984;19;20840;-61
2024/03/04 06:30:28;;;;;;;0.10;0.10;;;;;;;6.88;70.75;99776.72;7374107;19;20010;-64
2024/03/04 06:32:54;;;;;;;0.10;0.10;;;;;;;6.92;70.98;99775.78;7370181;19;20025;-62
2024/03/04 06:35:19;;;;;;;0.10;0.10;;;;;;;6.95;71.02;99760.16;7374072;19;20010;-61
2024/03/04 06:37:45;;;;;;;0.10;0.10;;;;;;;7.01;70.81;99761.75;7368784;19;20019;-62
2024/03/04 06:40:11;;;;;;;0.10;0.10;;;;;;;7.05;71.18;99759.94;7375776;19;20011;-63
2024/03/04 06:42:36;;;;;;;0.10;0.10;;;;;;;7.09;71.22;99753.78;7372306;19;20286;-62
2024/03/04 06:45:02;;;;;;;0.10;0.10;;;;;;;7.14;71.17;99757.09;7372937;19;20003;-62
2024/03/04 06:47:27;;;;;;;0.10;0.10;;;;;;;7.19;71.21;99752.66;7374694;19;20027;-61
2024/03/04 06:49:53;;;;;;;0.00;0.00;;;;;;;7.24;71.19;99758.59;7374083;19;20026;-62
2024/03/04 06:52:18;;;;;;;0.10;0.10;;;;;;;7.31;71.08;99754.13;7371821;19;20030;-62
2024/03/04 06:54:44;;;;;;;0.10;0.10;;;;;;;7.36;71.61;99736.69;7369573;19;20134;-61
2024/03/04 06:57:11;;;;;;;0.10;0.10;;;;;;;7.41;71.46;99740.03;7369930;19;20010;-62
2024/03/04 06:59:36;;;;;;;0.10;0.10;;;;;;;7.49;70.90;99749.31;7368026;19;20014;-62
2024/03/04 07:02:02;;;;;;;0.10;0.10;;;;;;;7.56;71.29;99738.78;7371090;19;20078;-61
2024/03/04 07:04:27;;;;;;;0.10;0.10;;;;;;;7.62;70.94;99739.47;7372826;19;20436;-62
2024/03/04 07:06:53;;;;;;;0.10;0.10;;;;;;;7.66;71.05;99732.44;7367166;19;20014;-61
2024/03/04 07:09:18;;;;;;;0.10;0.10;;;;;;;7.73;71.14;99737.44;7369300;19;20018;-61
2024/03/04 07:11:43;;;;;;;0.10;0.10;;;;;;;7.79;71.26;99737.25;7369744;19;20402;-62
2024/03/04 07:14:09;;;;;;;0.03;0.03;;;;;;;7.84;71.04;99726.75;7368610;19;19999;-62
2024/03/04 07:16:34;;;;;;;0.08;0.08;;;;;;;7.89;71.15;99732.66;7366792;19;20010;-62
2024/03/04 07:19:00;;;;;;;0.10;0.10;;;;;;;7.93;71.05;99731.69;7372640;19;20117;-62
2024/03/04 07:21:25;;;;;;;0.10;0.10;;;;;;;7.97;70.96;99732.47;7370454;19;20026;-61
2024/03/04 07:23:51;;;;;;;0.10;0.10;;;;;;;8.04;70.58;99731.41;7371356;19;20002;-61
2024/03/04 07:26:19;;;;;;;0.08;0.08;;;;;;;7.97;71.22;99709.94;7370257;19;20021;-61
2024/03/04 07:28:45;;;;;;;0.10;0.10;;;;;;;8.12;70.96;99726.00;7370955;19;20006;-61
2024/03/04 07:31:10;;;;;;;0.10;0.10;;;;;;;8.16;71.23;99725.88;7369543;19;20018;-62
2024/03/04 07:33:36;;;;;;;0.10;0.10;;;;;;;8.22;71.30;99724.84;7362055;19;20006;-62
2024/03/04 07:36:02;;;;;;;0.10;0.10;;;;;;;8.20;71.43;99714.47;7366967;19;20073;-62
2024/03/04 07:38:28;;;;;;;0.03;0.03;;;;;;;8.30;71.32;99722.84;7370731;19;19998;-62
2024/03/04 07:40:53;;;;;;;0.10;0.10;;;;;;;8.33;71.25;99722.78;7364441;19;20003;-62
2024/03/04 07:43:22;;;;;;;0.10;0.10;;;;;;;8.37;71.08;99721.81;7365996;19;19998;-61
2024/03/04 07:45:47;;;;;;;0.10;0.10;;;;;;;8.41;71.06;99738.19;7368157;19;20006;-62
2024/03/04 07:48:13;;;;;;;0.10;0.10;;;;;;;8.45;71.20;99726.78;7367571;19;20850;-61
2024/03/04 07:50:38;;;;;;;0.00;0.00;;;;;;;8.46;70.80;99737.13;7366721;19;20377;-61
2024/03/04 07:53:04;;;;;;;0.10;0.10;;;;;;;8.51;71.22;99724.84;7367936;19;20029;-61
2024/03/04 07:55:29;;;;;;;0.05;0.05;;;;;;;8.55;70.91;99721.25;7368980;19;20003;-61
2024/03/04 07:57:54;;;;;;;0.10;0.10;;;;;;;8.58;70.60;99723.78;7368566;19;20032;-61
2024/03/04 08:00:20;;;;;;;0.10;0.10;;;;;;;8.62;70.88;99718.47;7369197;19;20038;-62
2024/03/04 08:02:45;;;;;;;0.13;0.13;;;;;;;8.63;71.11;99710.63;7370428;19;20629;-62
2024/03/04 08:05:11;;;;;;;0.10;0.10;;;;;;;8.68;71.06;99718.31;7362711;19;20007;-62
2024/03/04 08:07:39;;;;;;;0.10;0.10;;;;;;;8.73;71.17;99706.00;7369666;19;20015;-62
2024/03/04 08:10:08;;;;;;;0.10;0.10;;;;;;;8.67;71.28;99686.22;7365919;19;20058;-62
2024/03/04 08:12:36;;;;;;;0.10;0.10;;;;;;;8.77;70.81;99702.41;7367133;19;20474;-61
2024/03/04 08:15:03;;;;;;;0.10;0.10;;;;;;;8.79;71.42;99695.38;7368161;19;20007;-61
2024/03/04 08:17:28;;;;;;;0.00;0.00;;;;;;;8.82;70.77;99695.31;7369306;19;20090;-62
2024/03/04 08:19:56;;;;;;;0.10;0.10;;;;;;;8.86;70.66;99699.50;7366605;19;20828;-62
2024/03/04 08:22:22;;;;;;;0.10;0.10;;;;;;;8.88;71.04;99709.88;7369042;19;20007;-61
2024/03/04 08:24:48;;;;;;;0.10;0.10;;;;;;;8.89;70.89;99704.63;7369422;19;19995;-62
2024/03/04 08:27:14;;;;;;;0.10;0.10;;;;;;;8.82;71.10;99679.69;7366825;19;20018;-61
2024/03/04 08:29:40;;;;;;;0.10;0.10;;;;;;;8.94;70.97;99684.50;7370692;19;20049;-62
2024/03/04 08:32:05;;;;;;;0.10;0.10;;;;;;;8.95;70.71;99699.19;7368643;19;20010;-61
2024/03/04 08:34:32;;;;;;;0.03;0.03;;;;;;;8.98;70.71;99680.03;7344538;19;20022;-62
2024/03/04 08:36:58;;;;;;;0.10;0.10;;;;;;;8.98;71.18;99680.03;7366442;19;20016;-61
2024/03/04 08:39:23;;;;;;;0.10;0.10;;;;;;;9.02;70.76;99674.69;7367151;19;20074;-63
2024/03/04 08:41:49;;;;;;;0.10;0.10;;;;;;;9.05;70.76;99677.16;7367480;19;20011;-61
2024/03/04 08:44:14;;;;;;;0.10;0.10;;;;;;;9.05;70.84;99677.16;7369371;19;20009;-62
2024/03/04 08:46:40;;;;;;;0.10;0.10;;;;;;;8.94;70.40;99648.03;7367467;19;20010;-61
2024/03/04 08:49:05;;;;;;;0.10;0.10;;;;;;;9.06;70.76;99662.41;7365395;19;19998;-63
2024/03/04 08:51:31;;;;;;;0.08;0.08;;;;;;;9.14;70.72;99675.19;7372220;19;20002;-61
2024/03/04 08:53:57;;;;;;;0.10;0.10;;;;;;;9.16;71.18;99679.41;7365179;19;20070;-61
2024/03/04 08:56:23;;;;;;;0.10;0.10;;;;;;;9.15;70.72;99663.84;7367335;19;20023;-61
2024/03/04 08:58:49;;;;;;;0.10;0.10;;;;;;;9.21;70.80;99681.88;7365889;19;20052;-62
2024/03/04 09:01:14;;;;;;;0.10;0.10;;;;;;;9.25;70.91;99663.50;7366221;19;20018;-62
2024/03/04 09:03:40;;;;;;;0.10;0.10;;;;;;;9.30;71.07;99665.94;7367857;19;20002;-62
2024/03/04 09:06:14;;;;;;;0.05;0.05;;;;;;;9.39;70.77;99676.06;7366389;19;20007;-62
2024/03/04 09:08:39;;;;;;;0.10;0.10;;;;;;;9.42;70.67;99652.47;7365432;19;20070;-62
2024/03/04 09:11:05;;;;;;;0.10;0.10;;;;;;;9.49;70.44;99647.94;7368651;19;20074;-62
2024/03/04 09:13:30;;;;;;;0.10;0.10;;;;;;;9.55;70.29;99661.59;7358726;19;20022;-62
2024/03/04 09:15:56;;;;;;;0.10;0.10;;;;;;;9.61;70.07;99647.47;7361326;19;20022;-62
2024/03/04 09:18:21;;;;;;;0.10;0.10;;;;;;;9.63;70.08;99643.09;7357180;19;20006;-62
2024/03/04 09:20:46;;;;;;;0.10;0.10;;;;;;;9.66;70.38;99631.69;7361963;19;20574;-62
2024/03/04 09:23:12;;;;;;;0.10;0.10;;;;;;;9.27;70.42;99574.84;7360539;19;20487;-61
2024/03/04 09:25:39;;;;;;;0.10;0.10;;;;;;;9.68;70.30;99637.69;7360579;19;20025;-62
2024/03/04 09:28:04;;;;;;;0.10;0.10;;;;;;;9.68;70.64;99641.16;7360381;19;20022;-61
2024/03/04 09:30:30;;;;;;;0.10;0.10;;;;;;;9.63;70.15;99627.44;7363856;19;20019;-62
2024/03/04 09:32:55;;;;;;;0.10;0.10;;;;;;;9.71;70.08;99638.44;7358623;19;20022;-62
2024/03/04 09:35:21;;;;;;;0.10;0.10;;;;;;;9.72;70.21;99626.25;7350162;19;20010;-62
2024/03/04 09:37:46;;;;;;;0.03;0.03;;;;;;;9.74;69.73;99645.31;7355998;19;20023;-61
2024/03/04 09:40:12;;;;;;;0.10;0.10;;;;;;;9.74;69.98;99634.88;7364316;19;20033;-62
2024/03/04 09:42:41;;;;;;;0.10;0.10;;;;;;;9.76;69.53;99622.63;7362180;19;20010;-61
2024/03/04 09:45:09;;;;;;;0.00;0.00;;;;;;;9.76;70.12;99626.06;7365301;19;20034;-64
2024/03/04 09:47:36;;;;;;;0.00;0.00;;;;;;;9.73;69.70;99622.72;7361247;19;20006;-61
2024/03/04 09:50:02;;;;;;;0.10;0.10;;;;;;;9.74;70.36;99621.84;7363434;19;20014;-61
2024/03/04 09:52:29;;;;;;;0.10;0.10;;;;;;;9.73;69.78;99615.78;7355440;19;20010;-60
2024/03/04 09:54:55;;;;;;;0.10;0.10;;;;;;;9.77;69.64;99635.59;7359890;19;19999;-63
2024/03/04 09:57:21;;;;;;;0.10;0.10;;;;;;;9.76;69.98;99622.63;7358961;19;20649;-62
2024/03/04 09:59:48;;;;;;;0.10;0.10;;;;;;;9.76;70.20;99618.25;7370163;19;20011;-62
2024/03/04 10:02:15;;;;;;;0.10;0.10;;;;;;;9.78;69.89;99615.56;7374820;19;20014;-62
2024/03/04 10:04:41;;;;;;;0.10;0.10;;;;;;;9.78;69.62;99613.84;7369914;19;20018;-61
2024/03/04 10:07:08;;;;;;;0.10;0.10;;;;;;;9.76;69.16;99599.16;7373505;19;20034;-62
2024/03/04 10:09:34;;;;;;;0.10;0.10;;;;;;;9.72;69.11;99600.16;7374789;19;20006;-62
2024/03/04 10:12:02;;;;;;;0.10;0.10;;;;;;;9.73;69.42;99607.06;7369290;19;20010;-62
2024/03/04 10:14:29;;;;;;;0.10;0.10;;;;;;;9.84;69.53;99604.94;7360436;19;20010;-62
2024/03/04 10:16:54;;;;;;;0.10;0.10;;;;;;;9.86;69.87;99608.34;7361319;19;19999;-61
2024/03/04 10:19:20;;;;;;;0.10;0.10;;;;;;;9.88;69.01;99604.78;7377421;19;20017;-62
2024/03/04 10:21:46;;;;;;;0.10;0.10;;;;;;;9.91;69.48;99616.84;7374255;19;20960;-61
2024/03/04 10:24:12;;;;;;;0.10;0.10;;;;;;;9.78;68.96;99584.28;7375644;19;20484;-63
2024/03/04 10:26:41;;;;;;;0.10;0.10;;;;;;;9.98;69.21;99596.59;7369038;19;20382;-62
2024/03/04 10:29:07;;;;;;;0.10;0.10;;;;;;;9.95;68.84;99581.91;7374878;19;20018;-62
2024/03/04 10:31:36;;;;;;;0.10;0.10;;;;;;;9.99;68.88;99588.72;7365787;19;20013;-61
2024/03/04 10:34:02;;;;;;;0.10;0.10;;;;;;;9.92;68.69;99565.53;7376545;19;20018;-62
2024/03/04 10:36:31;;;;;;;0.10;0.10;;;;;;;10.02;69.02;99575.53;7369195;19;20010;-62
2024/03/04 10:38:56;;;;;;;0.10;0.10;;;;;;;10.01;68.59;99573.84;7366720;19;20013;-62
2024/03/04 10:41:23;;;;;;;0.10;0.10;;;;;;;10.02;69.02;99570.34;7376873;19;19999;-63
2024/03/04 10:43:51;;;;;;;0.10;0.10;;;;;;;9.87;68.65;99542.22;7375268;19;20445;-61
2024/03/04 10:46:19;;;;;;;0.10;0.10;;;;;;;10.10;68.84;99560.47;7375950;19;20015;-62
2024/03/04 10:48:46;;;;;;;0.10;0.10;;;;;;;10.05;68.69;99540.69;7372426;19;19994;-62
2024/03/04 10:51:13;;;;;;;0.10;0.10;;;;;;;10.19;68.90;99550.56;7374754;19;19999;-62
2024/03/04 10:53:39;;;;;;;0.10;0.10;;;;;;;10.22;68.59;99543.47;7373476;19;20021;-62
2024/03/04 10:56:05;;;;;;;0.10;0.10;;;;;;;10.24;68.21;99535.59;7368952;19;20006;-62
2024/03/04 10:58:44;;;;;;;0.10;0.10;;;;;;;10.29;68.29;99534.53;7374846;19;20506;-62
2024/03/04 11:01:19;;;;;;;0.10;0.10;;;;;;;10.31;68.09;99537.91;7366522;19;20011;-61
2024/03/04 11:03:54;;;;;;;0.10;0.10;;;;;;;10.32;68.03;99530.94;7371670;19;20404;-62
2024/03/04 11:06:24;;;;;;;0.20;0.20;;;;;;;10.25;67.83;99535.56;7369051;19;20002;-62
2024/03/04 11:08:56;;;;;;;0.10;0.10;;;;;;;10.27;67.65;99536.34;7369251;19;19991;-61
2024/03/04 11:11:38;;;;;;;0.10;0.10;;;;;;;10.26;67.59;99536.41;7367370;19;20034;-61
2024/03/04 11:14:12;;;;;;;0.10;0.10;;;;;;;10.21;67.20;99525.28;7359325;19;20024;-62
2024/03/04 11:16:53;;;;;;;0.10;0.10;;;;;;;10.21;67.33;99525.28;7363356;19;20010;-62
2024/03/04 11:19:31;;;;;;;0.10;0.10;;;;;;;10.21;67.27;99514.84;7366277;19;20013;-62
2024/03/04 11:21:56;;;;;;;0.10;0.10;;;;;;;10.18;67.41;99504.50;7355007;19;20006;-61
2024/03/04 11:24:24;;;;;;;0.10;0.10;;;;;;;9.84;67.22;99465.00;7367744;19;20045;-63
2024/03/04 11:26:51;;;;;;;0.08;0.08;;;;;;;10.09;67.57;99484.88;7366735;19;20066;-61
2024/03/04 11:29:17;;;;;;;0.00;0.00;;;;;;;10.22;67.11;99512.16;7365033;19;20014;-62
2024/03/04 11:31:53;;;;;;;0.10;0.10;;;;;;;10.26;67.55;99492.06;7360540;19;20605;-61
2024/03/04 11:34:19;;;;;;;0.10;0.10;;;;;;;10.26;67.17;99507.72;7360698;19;20794;-62
2024/03/04 11:36:48;;;;;;;0.10;0.10;;;;;;;10.28;67.05;99496.28;7360864;19;20008;-62